sensor_id;sensor_type;location;lat;lon;timestamp;P1;durP1;ratioP1;P2;durP2;ratioP2
74469;SDS011;62918;55.706;37.816;2023-07-29T00:00:20;2.50;;;1.15;;
74469;SDS011;62918;55.706;37.816;2023-07-29T00:00:50;2.45;;;1.15;;
74469;SDS011;62918;55.706;37.816;2023-07-29T00:01:21;3.22;;;1.40;;
74469;SDS011;62918;55.706;37.816;2023-07-29T00:01:51;2.22;;;0.98;;
74469;SDS011;62918;55.706;37.816;2023-07-29T00:02:54;4.03;;;1.13;;
74469;SDS011;62918;55.706;37.816;2023-07-29T00:03:25;2.28;;;1.25;;
74469;SDS011;62918;55.706;37.816;2023-07-29T00:03:55;3.83;;;1.00;;
74469;SDS011;62918;55.706;37.816;2023-07-29T00:04:26;2.00;;;1.00;;
74469;SDS011;62918;55.706;37.816;2023-07-29T00:04:56;2.58;;;1.13;;
74469;SDS011;62918;55.706;37.816;2023-07-29T00:05:27;4.75;;;1.20;;
74469;SDS011;62918;55.706;37.816;2023-07-29T00:05:57;2.63;;;1.63;;
74469;SDS011;62918;55.706;37.816;2023-07-29T00:06:28;3.08;;;1.23;;
74469;SDS011;62918;55.706;37.816;2023-07-29T00:06:58;2.45;;;1.40;;
74469;SDS011;62918;55.706;37.816;2023-07-29T00:07:29;3.90;;;1.30;;
74469;SDS011;62918;55.706;37.816;2023-07-29T00:07:59;2.22;;;1.30;;
74469;SDS011;62918;55.706;37.816;2023-07-29T00:08:30;2.80;;;1.08;;
74469;SDS011;62918;55.706;37.816;2023-07-29T00:09:01;2.65;;;1.27;;
74469;SDS011;62918;55.706;37.816;2023-07-29T00:09:32;5.97;;;1.67;;
74469;SDS011;62918;55.706;37.816;2023-07-29T00:10:03;2.15;;;1.25;;
74469;SDS011;62918;55.706;37.816;2023-07-29T00:10:37;3.97;;;1.15;;
74469;SDS011;62918;55.706;37.816;2023-07-29T00:11:08;2.75;;;1.27;;
74469;SDS011;62918;55.706;37.816;2023-07-29T00:11:38;5.45;;;1.00;;
74469;SDS011;62918;55.706;37.816;2023-07-29T00:12:09;6.88;;;1.90;;
74469;SDS011;62918;55.706;37.816;2023-07-29T00:12:39;3.58;;;1.80;;
74469;SDS011;62918;55.706;37.816;2023-07-29T00:13:10;3.13;;;1.60;;
74469;SDS011;62918;55.706;37.816;2023-07-29T00:13:40;3.67;;;1.30;;
74469;SDS011;62918;55.706;37.816;2023-07-29T00:14:11;1.95;;;1.20;;
74469;SDS011;62918;55.706;37.816;2023-07-29T00:14:41;5.15;;;1.02;;
74469;SDS011;62918;55.706;37.816;2023-07-29T00:15:12;2.25;;;1.25;;
74469;SDS011;62918;55.706;37.816;2023-07-29T00:15:43;2.33;;;1.42;;
74469;SDS011;62918;55.706;37.816;2023-07-29T00:16:13;3.35;;;1.00;;
74469;SDS011;62918;55.706;37.816;2023-07-29T00:16:45;3.38;;;1.10;;
74469;SDS011;62918;55.706;37.816;2023-07-29T00:17:16;2.42;;;1.23;;
74469;SDS011;62918;55.706;37.816;2023-07-29T00:17:46;2.67;;;1.20;;
74469;SDS011;62918;55.706;37.816;2023-07-29T00:18:17;2.17;;;1.02;;
74469;SDS011;62918;55.706;37.816;2023-07-29T00:18:48;2.35;;;1.33;;
74469;SDS011;62918;55.706;37.816;2023-07-29T00:19:19;4.03;;;1.38;;
74469;SDS011;62918;55.706;37.816;2023-07-29T00:19:53;3.15;;;1.33;;
74469;SDS011;62918;55.706;37.816;2023-07-29T00:20:24;2.95;;;1.60;;
74469;SDS011;62918;55.706;37.816;2023-07-29T00:20:54;2.35;;;1.20;;
74469;SDS011;62918;55.706;37.816;2023-07-29T00:21:25;3.10;;;1.15;;
74469;SDS011;62918;55.706;37.816;2023-07-29T00:21:56;1.73;;;1.00;;
74469;SDS011;62918;55.706;37.816;2023-07-29T00:22:27;3.90;;;1.20;;
74469;SDS011;62918;55.706;37.816;2023-07-29T00:22:57;2.35;;;1.35;;
74469;SDS011;62918;55.706;37.816;2023-07-29T00:23:29;5.43;;;1.30;;
74469;SDS011;62918;55.706;37.816;2023-07-29T00:23:59;3.15;;;1.33;;
74469;SDS011;62918;55.706;37.816;2023-07-29T00:24:31;3.38;;;1.20;;
74469;SDS011;62918;55.706;37.816;2023-07-29T00:25:01;2.22;;;1.23;;
74469;SDS011;62918;55.706;37.816;2023-07-29T00:25:32;2.53;;;1.30;;
74469;SDS011;62918;55.706;37.816;2023-07-29T00:26:02;2.17;;;1.20;;
74469;SDS011;62918;55.706;37.816;2023-07-29T00:26:33;2.72;;;2.10;;
74469;SDS011;62918;55.706;37.816;2023-07-29T00:27:04;1.92;;;1.00;;
74469;SDS011;62918;55.706;37.816;2023-07-29T00:27:35;1.85;;;1.08;;
74469;SDS011;62918;55.706;37.816;2023-07-29T00:28:05;2.13;;;1.30;;
74469;SDS011;62918;55.706;37.816;2023-07-29T00:28:36;2.08;;;1.13;;
74469;SDS011;62918;55.706;37.816;2023-07-29T00:29:07;3.00;;;1.33;;
74469;SDS011;62918;55.706;37.816;2023-07-29T00:29:37;3.38;;;1.90;;
74469;SDS011;62918;55.706;37.816;2023-07-29T00:30:08;3.47;;;1.13;;
74469;SDS011;62918;55.706;37.816;2023-07-29T00:30:39;1.60;;;1.20;;
74469;SDS011;62918;55.706;37.816;2023-07-29T00:31:09;2.50;;;1.35;;
74469;SDS011;62918;55.706;37.816;2023-07-29T00:31:40;3.17;;;1.38;;
74469;SDS011;62918;55.706;37.816;2023-07-29T00:32:11;5.10;;;1.30;;
74469;SDS011;62918;55.706;37.816;2023-07-29T00:32:41;4.85;;;1.15;;
74469;SDS011;62918;55.706;37.816;2023-07-29T00:33:12;2.42;;;1.20;;
74469;SDS011;62918;55.706;37.816;2023-07-29T00:33:42;2.00;;;1.30;;
74469;SDS011;62918;55.706;37.816;2023-07-29T00:34:13;1.90;;;1.00;;
74469;SDS011;62918;55.706;37.816;2023-07-29T00:34:47;4.70;;;1.35;;
74469;SDS011;62918;55.706;37.816;2023-07-29T00:35:17;1.85;;;1.10;;
74469;SDS011;62918;55.706;37.816;2023-07-29T00:35:48;3.65;;;1.05;;
74469;SDS011;62918;55.706;37.816;2023-07-29T00:36:19;2.03;;;1.05;;
74469;SDS011;62918;55.706;37.816;2023-07-29T00:36:50;2.72;;;1.25;;
74469;SDS011;62918;55.706;37.816;2023-07-29T00:37:21;3.75;;;1.30;;
74469;SDS011;62918;55.706;37.816;2023-07-29T00:37:51;5.63;;;1.83;;
74469;SDS011;62918;55.706;37.816;2023-07-29T00:38:22;2.03;;;0.95;;
74469;SDS011;62918;55.706;37.816;2023-07-29T00:38:52;1.75;;;0.88;;
74469;SDS011;62918;55.706;37.816;2023-07-29T00:39:24;4.07;;;1.38;;
74469;SDS011;62918;55.706;37.816;2023-07-29T00:39:55;1.77;;;0.95;;
74469;SDS011;62918;55.706;37.816;2023-07-29T00:40:25;3.40;;;1.20;;
74469;SDS011;62918;55.706;37.816;2023-07-29T00:40:58;2.60;;;1.30;;
74469;SDS011;62918;55.706;37.816;2023-07-29T00:41:32;1.85;;;0.98;;
74469;SDS011;62918;55.706;37.816;2023-07-29T00:42:03;4.47;;;2.83;;
74469;SDS011;62918;55.706;37.816;2023-07-29T00:42:34;4.53;;;3.25;;
74469;SDS011;62918;55.706;37.816;2023-07-29T00:43:05;2.78;;;1.42;;
74469;SDS011;62918;55.706;37.816;2023-07-29T00:43:35;5.82;;;3.17;;
74469;SDS011;62918;55.706;37.816;2023-07-29T00:44:05;4.30;;;1.55;;
74469;SDS011;62918;55.706;37.816;2023-07-29T00:44:36;3.75;;;1.33;;
74469;SDS011;62918;55.706;37.816;2023-07-29T00:45:07;3.25;;;1.38;;
74469;SDS011;62918;55.706;37.816;2023-07-29T00:45:38;1.75;;;1.20;;
74469;SDS011;62918;55.706;37.816;2023-07-29T00:46:10;2.25;;;1.38;;
74469;SDS011;62918;55.706;37.816;2023-07-29T00:46:43;1.83;;;1.10;;
74469;SDS011;62918;55.706;37.816;2023-07-29T00:47:16;1.95;;;1.08;;
74469;SDS011;62918;55.706;37.816;2023-07-29T00:47:47;1.98;;;1.10;;
74469;SDS011;62918;55.706;37.816;2023-07-29T00:48:17;2.42;;;1.10;;
74469;SDS011;62918;55.706;37.816;2023-07-29T00:48:48;2.63;;;1.33;;
74469;SDS011;62918;55.706;37.816;2023-07-29T00:49:19;2.63;;;1.50;;
74469;SDS011;62918;55.706;37.816;2023-07-29T00:49:51;2.15;;;1.13;;
74469;SDS011;62918;55.706;37.816;2023-07-29T00:50:21;3.80;;;1.27;;
74469;SDS011;62918;55.706;37.816;2023-07-29T00:50:52;2.75;;;1.30;;
74469;SDS011;62918;55.706;37.816;2023-07-29T00:51:24;1.77;;;0.93;;
74469;SDS011;62918;55.706;37.816;2023-07-29T00:51:55;1.85;;;1.13;;
74469;SDS011;62918;55.706;37.816;2023-07-29T00:52:25;2.30;;;1.02;;
74469;SDS011;62918;55.706;37.816;2023-07-29T00:52:56;3.20;;;1.15;;
74469;SDS011;62918;55.706;37.816;2023-07-29T00:53:27;2.05;;;1.08;;
74469;SDS011;62918;55.706;37.816;2023-07-29T00:53:57;2.78;;;1.25;;
74469;SDS011;62918;55.706;37.816;2023-07-29T00:54:28;3.10;;;1.33;;
74469;SDS011;62918;55.706;37.816;2023-07-29T00:54:59;3.63;;;1.35;;
74469;SDS011;62918;55.706;37.816;2023-07-29T00:55:29;2.03;;;1.20;;
74469;SDS011;62918;55.706;37.816;2023-07-29T00:56:00;2.60;;;1.10;;
74469;SDS011;62918;55.706;37.816;2023-07-29T00:56:31;2.20;;;1.67;;
74469;SDS011;62918;55.706;37.816;2023-07-29T00:57:02;2.60;;;1.38;;
74469;SDS011;62918;55.706;37.816;2023-07-29T00:57:33;1.98;;;1.20;;
74469;SDS011;62918;55.706;37.816;2023-07-29T00:58:03;2.50;;;1.65;;
74469;SDS011;62918;55.706;37.816;2023-07-29T00:58:34;2.50;;;1.30;;
74469;SDS011;62918;55.706;37.816;2023-07-29T00:59:05;4.60;;;1.50;;
74469;SDS011;62918;55.706;37.816;2023-07-29T00:59:35;2.10;;;1.20;;
74469;SDS011;62918;55.706;37.816;2023-07-29T01:00:06;4.47;;;1.20;;
74469;SDS011;62918;55.706;37.816;2023-07-29T01:00:38;2.80;;;1.50;;
74469;SDS011;62918;55.706;37.816;2023-07-29T01:01:09;2.45;;;1.10;;
74469;SDS011;62918;55.706;37.816;2023-07-29T01:01:39;2.13;;;1.25;;
74469;SDS011;62918;55.706;37.816;2023-07-29T01:02:10;3.70;;;1.17;;
74469;SDS011;62918;55.706;37.816;2023-07-29T01:02:42;2.67;;;1.13;;
74469;SDS011;62918;55.706;37.816;2023-07-29T01:03:13;2.45;;;1.20;;
74469;SDS011;62918;55.706;37.816;2023-07-29T01:03:43;3.05;;;1.13;;
74469;SDS011;62918;55.706;37.816;2023-07-29T01:04:15;3.50;;;1.20;;
74469;SDS011;62918;55.706;37.816;2023-07-29T01:04:46;3.05;;;1.48;;
74469;SDS011;62918;55.706;37.816;2023-07-29T01:05:22;1.98;;;1.13;;
74469;SDS011;62918;55.706;37.816;2023-07-29T01:07:19;2.13;;;1.38;;
74469;SDS011;62918;55.706;37.816;2023-07-29T01:07:59;1.98;;;1.05;;
74469;SDS011;62918;55.706;37.816;2023-07-29T01:09:05;4.15;;;1.88;;
74469;SDS011;62918;55.706;37.816;2023-07-29T01:09:53;2.13;;;1.15;;
74469;SDS011;62918;55.706;37.816;2023-07-29T01:11:15;2.70;;;1.73;;
74469;SDS011;62918;55.706;37.816;2023-07-29T01:11:57;5.28;;;1.67;;
74469;SDS011;62918;55.706;37.816;2023-07-29T01:12:39;2.28;;;1.30;;
74469;SDS011;62918;55.706;37.816;2023-07-29T01:14:21;5.20;;;2.55;;
74469;SDS011;62918;55.706;37.816;2023-07-29T01:15:14;3.40;;;1.60;;
74469;SDS011;62918;55.706;37.816;2023-07-29T01:15:52;4.15;;;1.65;;
74469;SDS011;62918;55.706;37.816;2023-07-29T01:16:31;5.72;;;1.90;;
74469;SDS011;62918;55.706;37.816;2023-07-29T01:17:12;3.17;;;2.17;;
74469;SDS011;62918;55.706;37.816;2023-07-29T01:17:46;4.10;;;2.33;;
74469;SDS011;62918;55.706;37.816;2023-07-29T01:18:51;3.72;;;2.75;;
74469;SDS011;62918;55.706;37.816;2023-07-29T01:20:24;6.05;;;3.15;;
74469;SDS011;62918;55.706;37.816;2023-07-29T01:20:58;3.38;;;2.50;;
74469;SDS011;62918;55.706;37.816;2023-07-29T01:21:33;7.47;;;3.40;;
74469;SDS011;62918;55.706;37.816;2023-07-29T01:22:06;5.30;;;2.67;;
74469;SDS011;62918;55.706;37.816;2023-07-29T01:23:10;5.20;;;3.20;;
74469;SDS011;62918;55.706;37.816;2023-07-29T01:23:40;6.88;;;3.13;;
74469;SDS011;62918;55.706;37.816;2023-07-29T01:24:11;6.93;;;3.08;;
74469;SDS011;62918;55.706;37.816;2023-07-29T01:24:41;4.30;;;3.20;;
74469;SDS011;62918;55.706;37.816;2023-07-29T01:25:12;4.90;;;3.05;;
74469;SDS011;62918;55.706;37.816;2023-07-29T01:25:43;5.63;;;3.40;;
74469;SDS011;62918;55.706;37.816;2023-07-29T01:26:14;4.78;;;2.72;;
74469;SDS011;62918;55.706;37.816;2023-07-29T01:26:44;5.95;;;2.92;;
74469;SDS011;62918;55.706;37.816;2023-07-29T01:27:15;6.10;;;2.95;;
74469;SDS011;62918;55.706;37.816;2023-07-29T01:27:46;6.13;;;2.92;;
74469;SDS011;62918;55.706;37.816;2023-07-29T01:28:18;5.30;;;2.95;;
74469;SDS011;62918;55.706;37.816;2023-07-29T01:28:49;5.40;;;3.50;;
74469;SDS011;62918;55.706;37.816;2023-07-29T01:29:19;4.40;;;2.72;;
74469;SDS011;62918;55.706;37.816;2023-07-29T01:29:50;5.85;;;3.17;;
74469;SDS011;62918;55.706;37.816;2023-07-29T01:30:22;4.60;;;2.72;;
74469;SDS011;62918;55.706;37.816;2023-07-29T01:31:02;4.05;;;2.70;;
74469;SDS011;62918;55.706;37.816;2023-07-29T01:31:41;4.32;;;2.83;;
74469;SDS011;62918;55.706;37.816;2023-07-29T01:32:17;4.88;;;2.63;;
74469;SDS011;62918;55.706;37.816;2023-07-29T01:34:41;5.22;;;2.42;;
74469;SDS011;62918;55.706;37.816;2023-07-29T01:35:00;4.97;;;2.38;;
74469;SDS011;62918;55.706;37.816;2023-07-29T01:35:45;4.80;;;2.35;;
74469;SDS011;62918;55.706;37.816;2023-07-29T01:36:21;4.18;;;2.45;;
74469;SDS011;62918;55.706;37.816;2023-07-29T01:36:55;3.47;;;2.10;;
74469;SDS011;62918;55.706;37.816;2023-07-29T01:37:30;4.80;;;2.20;;
74469;SDS011;62918;55.706;37.816;2023-07-29T01:38:09;7.43;;;3.25;;
74469;SDS011;62918;55.706;37.816;2023-07-29T01:38:44;5.40;;;2.83;;
74469;SDS011;62918;55.706;37.816;2023-07-29T01:39:18;4.97;;;2.45;;
74469;SDS011;62918;55.706;37.816;2023-07-29T01:39:52;3.35;;;2.22;;
74469;SDS011;62918;55.706;37.816;2023-07-29T01:40:27;4.45;;;2.55;;
74469;SDS011;62918;55.706;37.816;2023-07-29T01:40:59;3.80;;;2.10;;
74469;SDS011;62918;55.706;37.816;2023-07-29T01:41:32;5.53;;;2.33;;
74469;SDS011;62918;55.706;37.816;2023-07-29T01:42:04;3.80;;;2.10;;
74469;SDS011;62918;55.706;37.816;2023-07-29T01:42:35;4.20;;;2.42;;
74469;SDS011;62918;55.706;37.816;2023-07-29T01:43:07;3.50;;;2.42;;
74469;SDS011;62918;55.706;37.816;2023-07-29T01:43:38;6.68;;;2.42;;
74469;SDS011;62918;55.706;37.816;2023-07-29T01:44:13;3.85;;;2.15;;
74469;SDS011;62918;55.706;37.816;2023-07-29T01:44:45;2.67;;;1.83;;
74469;SDS011;62918;55.706;37.816;2023-07-29T01:45:15;4.38;;;2.53;;
74469;SDS011;62918;55.706;37.816;2023-07-29T01:45:46;3.45;;;1.77;;
74469;SDS011;62918;55.706;37.816;2023-07-29T01:46:17;3.42;;;2.17;;
74469;SDS011;62918;55.706;37.816;2023-07-29T01:46:48;3.60;;;1.95;;
74469;SDS011;62918;55.706;37.816;2023-07-29T01:47:20;4.05;;;1.80;;
74469;SDS011;62918;55.706;37.816;2023-07-29T01:47:52;5.88;;;2.60;;
74469;SDS011;62918;55.706;37.816;2023-07-29T01:48:23;4.00;;;2.13;;
74469;SDS011;62918;55.706;37.816;2023-07-29T01:48:54;2.67;;;1.60;;
74469;SDS011;62918;55.706;37.816;2023-07-29T01:49:24;3.78;;;2.08;;
74469;SDS011;62918;55.706;37.816;2023-07-29T01:49:55;5.03;;;1.83;;
74469;SDS011;62918;55.706;37.816;2023-07-29T01:50:25;3.78;;;2.03;;
74469;SDS011;62918;55.706;37.816;2023-07-29T01:50:56;3.78;;;1.70;;
74469;SDS011;62918;55.706;37.816;2023-07-29T01:51:26;3.33;;;2.03;;
74469;SDS011;62918;55.706;37.816;2023-07-29T01:51:57;6.68;;;1.88;;
74469;SDS011;62918;55.706;37.816;2023-07-29T01:52:28;2.42;;;1.70;;
74469;SDS011;62918;55.706;37.816;2023-07-29T01:52:58;3.28;;;1.58;;
74469;SDS011;62918;55.706;37.816;2023-07-29T01:53:29;3.70;;;2.35;;
74469;SDS011;62918;55.706;37.816;2023-07-29T01:54:00;3.38;;;1.95;;
74469;SDS011;62918;55.706;37.816;2023-07-29T01:54:31;2.30;;;1.90;;
74469;SDS011;62918;55.706;37.816;2023-07-29T01:55:01;3.80;;;1.75;;
74469;SDS011;62918;55.706;37.816;2023-07-29T01:55:32;4.55;;;1.90;;
74469;SDS011;62918;55.706;37.816;2023-07-29T01:56:03;3.28;;;1.92;;
74469;SDS011;62918;55.706;37.816;2023-07-29T01:56:33;3.53;;;1.70;;
74469;SDS011;62918;55.706;37.816;2023-07-29T01:57:04;3.40;;;1.98;;
74469;SDS011;62918;55.706;37.816;2023-07-29T01:57:34;5.63;;;1.65;;
74469;SDS011;62918;55.706;37.816;2023-07-29T01:58:05;2.78;;;1.67;;
74469;SDS011;62918;55.706;37.816;2023-07-29T01:58:36;3.00;;;1.85;;
74469;SDS011;62918;55.706;37.816;2023-07-29T01:59:06;3.33;;;1.85;;
74469;SDS011;62918;55.706;37.816;2023-07-29T01:59:37;5.03;;;1.73;;
74469;SDS011;62918;55.706;37.816;2023-07-29T02:00:07;2.88;;;1.85;;
74469;SDS011;62918;55.706;37.816;2023-07-29T02:00:38;3.90;;;1.77;;
74469;SDS011;62918;55.706;37.816;2023-07-29T02:01:10;2.83;;;1.98;;
74469;SDS011;62918;55.706;37.816;2023-07-29T02:01:40;3.05;;;2.10;;
74469;SDS011;62918;55.706;37.816;2023-07-29T02:02:14;4.25;;;1.85;;
74469;SDS011;62918;55.706;37.816;2023-07-29T02:02:44;3.40;;;1.80;;
74469;SDS011;62918;55.706;37.816;2023-07-29T02:03:15;4.20;;;1.55;;
74469;SDS011;62918;55.706;37.816;2023-07-29T02:03:46;3.40;;;1.30;;
74469;SDS011;62918;55.706;37.816;2023-07-29T02:04:17;2.03;;;1.35;;
74469;SDS011;62918;55.706;37.816;2023-07-29T02:04:47;2.90;;;1.67;;
74469;SDS011;62918;55.706;37.816;2023-07-29T02:05:21;3.30;;;1.42;;
74469;SDS011;62918;55.706;37.816;2023-07-29T02:05:52;3.22;;;1.73;;
74469;SDS011;62918;55.706;37.816;2023-07-29T02:06:22;2.53;;;1.50;;
74469;SDS011;62918;55.706;37.816;2023-07-29T02:06:53;3.60;;;1.55;;
74469;SDS011;62918;55.706;37.816;2023-07-29T02:07:25;4.68;;;1.45;;
74469;SDS011;62918;55.706;37.816;2023-07-29T02:07:56;3.65;;;1.35;;
74469;SDS011;62918;55.706;37.816;2023-07-29T02:08:27;3.75;;;1.52;;
74469;SDS011;62918;55.706;37.816;2023-07-29T02:08:58;3.53;;;1.63;;
74469;SDS011;62918;55.706;37.816;2023-07-29T02:09:28;2.90;;;1.70;;
74469;SDS011;62918;55.706;37.816;2023-07-29T02:10:00;3.63;;;1.80;;
74469;SDS011;62918;55.706;37.816;2023-07-29T02:10:34;3.28;;;1.65;;
74469;SDS011;62918;55.706;37.816;2023-07-29T02:11:05;3.15;;;1.20;;
74469;SDS011;62918;55.706;37.816;2023-07-29T02:11:35;3.90;;;1.38;;
74469;SDS011;62918;55.706;37.816;2023-07-29T02:12:06;3.03;;;1.52;;
74469;SDS011;62918;55.706;37.816;2023-07-29T02:12:39;2.55;;;1.42;;
74469;SDS011;62918;55.706;37.816;2023-07-29T02:13:10;2.78;;;1.50;;
74469;SDS011;62918;55.706;37.816;2023-07-29T02:13:41;3.78;;;1.40;;
74469;SDS011;62918;55.706;37.816;2023-07-29T02:14:12;2.28;;;1.42;;
74469;SDS011;62918;55.706;37.816;2023-07-29T02:14:42;2.75;;;1.50;;
74469;SDS011;62918;55.706;37.816;2023-07-29T02:15:13;2.92;;;1.55;;
74469;SDS011;62918;55.706;37.816;2023-07-29T02:15:43;2.40;;;1.50;;
74469;SDS011;62918;55.706;37.816;2023-07-29T02:16:14;3.90;;;1.75;;
74469;SDS011;62918;55.706;37.816;2023-07-29T02:16:45;4.18;;;1.65;;
74469;SDS011;62918;55.706;37.816;2023-07-29T02:17:15;4.50;;;1.70;;
74469;SDS011;62918;55.706;37.816;2023-07-29T02:17:46;2.63;;;1.75;;
74469;SDS011;62918;55.706;37.816;2023-07-29T02:18:16;3.00;;;1.27;;
74469;SDS011;62918;55.706;37.816;2023-07-29T02:18:47;3.47;;;1.80;;
74469;SDS011;62918;55.706;37.816;2023-07-29T02:19:17;2.47;;;1.65;;
74469;SDS011;62918;55.706;37.816;2023-07-29T02:19:48;3.97;;;1.52;;
74469;SDS011;62918;55.706;37.816;2023-07-29T02:20:19;4.63;;;1.58;;
74469;SDS011;62918;55.706;37.816;2023-07-29T02:20:50;2.45;;;1.40;;
74469;SDS011;62918;55.706;37.816;2023-07-29T02:21:20;3.90;;;1.70;;
74469;SDS011;62918;55.706;37.816;2023-07-29T02:21:51;3.65;;;1.60;;
74469;SDS011;62918;55.706;37.816;2023-07-29T02:22:21;2.42;;;1.40;;
74469;SDS011;62918;55.706;37.816;2023-07-29T02:22:52;3.95;;;1.63;;
74469;SDS011;62918;55.706;37.816;2023-07-29T02:23:22;3.15;;;1.75;;
74469;SDS011;62918;55.706;37.816;2023-07-29T02:23:53;3.80;;;1.63;;
74469;SDS011;62918;55.706;37.816;2023-07-29T02:24:23;6.22;;;1.95;;
74469;SDS011;62918;55.706;37.816;2023-07-29T02:24:54;3.42;;;1.33;;
74469;SDS011;62918;55.706;37.816;2023-07-29T02:25:24;1.58;;;0.98;;
74469;SDS011;62918;55.706;37.816;2023-07-29T02:25:55;6.47;;;1.98;;
74469;SDS011;62918;55.706;37.816;2023-07-29T02:26:25;2.72;;;1.23;;
74469;SDS011;62918;55.706;37.816;2023-07-29T02:26:56;3.17;;;1.08;;
74469;SDS011;62918;55.706;37.816;2023-07-29T02:27:26;3.72;;;1.33;;
74469;SDS011;62918;55.706;37.816;2023-07-29T02:27:58;4.00;;;1.70;;
74469;SDS011;62918;55.706;37.816;2023-07-29T02:28:28;3.28;;;1.55;;
74469;SDS011;62918;55.706;37.816;2023-07-29T02:28:59;2.35;;;1.50;;
74469;SDS011;62918;55.706;37.816;2023-07-29T02:29:29;2.85;;;1.63;;
74469;SDS011;62918;55.706;37.816;2023-07-29T02:30:00;3.10;;;1.85;;
74469;SDS011;62918;55.706;37.816;2023-07-29T02:30:31;2.90;;;1.70;;
74469;SDS011;62918;55.706;37.816;2023-07-29T02:31:21;3.97;;;1.58;;
74469;SDS011;62918;55.706;37.816;2023-07-29T02:31:52;3.70;;;1.27;;
74469;SDS011;62918;55.706;37.816;2023-07-29T02:32:23;3.03;;;1.40;;
74469;SDS011;62918;55.706;37.816;2023-07-29T02:32:54;2.47;;;1.73;;
74469;SDS011;62918;55.706;37.816;2023-07-29T02:33:24;3.70;;;1.63;;
74469;SDS011;62918;55.706;37.816;2023-07-29T02:33:55;3.60;;;1.70;;
74469;SDS011;62918;55.706;37.816;2023-07-29T02:34:26;2.70;;;1.45;;
74469;SDS011;62918;55.706;37.816;2023-07-29T02:34:56;3.35;;;1.98;;
74469;SDS011;62918;55.706;37.816;2023-07-29T02:35:27;3.70;;;1.65;;
74469;SDS011;62918;55.706;37.816;2023-07-29T02:35:58;4.22;;;1.50;;
74469;SDS011;62918;55.706;37.816;2023-07-29T02:36:29;3.13;;;2.22;;
74469;SDS011;62918;55.706;37.816;2023-07-29T02:36:59;3.00;;;1.65;;
74469;SDS011;62918;55.706;37.816;2023-07-29T02:37:30;2.60;;;1.58;;
74469;SDS011;62918;55.706;37.816;2023-07-29T02:38:01;2.10;;;1.50;;
74469;SDS011;62918;55.706;37.816;2023-07-29T02:38:31;4.15;;;1.80;;
74469;SDS011;62918;55.706;37.816;2023-07-29T02:39:02;3.63;;;1.73;;
74469;SDS011;62918;55.706;37.816;2023-07-29T02:39:32;5.32;;;1.55;;
74469;SDS011;62918;55.706;37.816;2023-07-29T02:40:03;2.90;;;1.48;;
74469;SDS011;62918;55.706;37.816;2023-07-29T02:40:34;3.53;;;2.15;;
74469;SDS011;62918;55.706;37.816;2023-07-29T02:41:04;3.65;;;1.33;;
74469;SDS011;62918;55.706;37.816;2023-07-29T02:41:35;2.67;;;1.55;;
74469;SDS011;62918;55.706;37.816;2023-07-29T02:42:06;2.88;;;1.55;;
74469;SDS011;62918;55.706;37.816;2023-07-29T02:42:36;3.25;;;1.60;;
74469;SDS011;62918;55.706;37.816;2023-07-29T02:43:07;2.38;;;1.30;;
74469;SDS011;62918;55.706;37.816;2023-07-29T02:43:37;2.85;;;1.30;;
74469;SDS011;62918;55.706;37.816;2023-07-29T02:44:08;2.55;;;1.30;;
74469;SDS011;62918;55.706;37.816;2023-07-29T02:44:39;2.58;;;1.50;;
74469;SDS011;62918;55.706;37.816;2023-07-29T02:45:10;3.42;;;1.80;;
74469;SDS011;62918;55.706;37.816;2023-07-29T02:45:41;3.20;;;1.10;;
74469;SDS011;62918;55.706;37.816;2023-07-29T02:46:12;2.80;;;1.45;;
74469;SDS011;62918;55.706;37.816;2023-07-29T02:46:42;2.97;;;1.33;;
74469;SDS011;62918;55.706;37.816;2023-07-29T02:47:13;3.63;;;1.50;;
74469;SDS011;62918;55.706;37.816;2023-07-29T02:47:43;3.42;;;1.73;;
74469;SDS011;62918;55.706;37.816;2023-07-29T02:48:14;2.42;;;1.30;;
74469;SDS011;62918;55.706;37.816;2023-07-29T02:48:44;2.88;;;1.52;;
74469;SDS011;62918;55.706;37.816;2023-07-29T02:49:15;3.92;;;1.50;;
74469;SDS011;62918;55.706;37.816;2023-07-29T02:49:45;2.53;;;1.30;;
74469;SDS011;62918;55.706;37.816;2023-07-29T02:50:16;2.80;;;1.67;;
74469;SDS011;62918;55.706;37.816;2023-07-29T02:50:46;2.83;;;1.38;;
74469;SDS011;62918;55.706;37.816;2023-07-29T02:51:17;4.85;;;1.58;;
74469;SDS011;62918;55.706;37.816;2023-07-29T02:51:48;2.60;;;1.20;;
74469;SDS011;62918;55.706;37.816;2023-07-29T02:52:18;2.35;;;1.60;;
74469;SDS011;62918;55.706;37.816;2023-07-29T02:52:49;5.18;;;1.48;;
74469;SDS011;62918;55.706;37.816;2023-07-29T02:53:19;4.45;;;1.27;;
74469;SDS011;62918;55.706;37.816;2023-07-29T02:53:50;2.17;;;1.30;;
74469;SDS011;62918;55.706;37.816;2023-07-29T02:54:20;2.95;;;1.30;;
74469;SDS011;62918;55.706;37.816;2023-07-29T02:54:51;3.33;;;1.35;;
74469;SDS011;62918;55.706;37.816;2023-07-29T02:55:21;3.78;;;1.30;;
74469;SDS011;62918;55.706;37.816;2023-07-29T02:55:52;2.38;;;1.10;;
74469;SDS011;62918;55.706;37.816;2023-07-29T02:56:23;2.72;;;1.42;;
74469;SDS011;62918;55.706;37.816;2023-07-29T02:56:54;3.30;;;1.73;;
74469;SDS011;62918;55.706;37.816;2023-07-29T02:57:24;2.22;;;1.40;;
74469;SDS011;62918;55.706;37.816;2023-07-29T02:57:55;2.67;;;1.45;;
74469;SDS011;62918;55.706;37.816;2023-07-29T02:58:25;2.50;;;1.50;;
74469;SDS011;62918;55.706;37.816;2023-07-29T02:58:56;3.35;;;1.52;;
74469;SDS011;62918;55.706;37.816;2023-07-29T02:59:27;2.55;;;1.70;;
74469;SDS011;62918;55.706;37.816;2023-07-29T02:59:57;2.67;;;1.15;;
74469;SDS011;62918;55.706;37.816;2023-07-29T03:00:30;5.05;;;1.77;;
74469;SDS011;62918;55.706;37.816;2023-07-29T03:01:02;2.22;;;1.33;;
74469;SDS011;62918;55.706;37.816;2023-07-29T03:02:04;3.45;;;1.45;;
74469;SDS011;62918;55.706;37.816;2023-07-29T03:02:35;4.22;;;2.42;;
74469;SDS011;62918;55.706;37.816;2023-07-29T03:03:05;4.95;;;1.52;;
74469;SDS011;62918;55.706;37.816;2023-07-29T03:03:36;2.72;;;1.50;;
74469;SDS011;62918;55.706;37.816;2023-07-29T03:04:06;3.50;;;1.42;;
74469;SDS011;62918;55.706;37.816;2023-07-29T03:04:41;2.30;;;1.30;;
74469;SDS011;62918;55.706;37.816;2023-07-29T03:05:11;3.03;;;1.50;;
74469;SDS011;62918;55.706;37.816;2023-07-29T03:07:06;2.75;;;1.65;;
74469;SDS011;62918;55.706;37.816;2023-07-29T03:09:39;2.03;;;1.40;;
74469;SDS011;62918;55.706;37.816;2023-07-29T03:10:12;3.58;;;1.65;;
74469;SDS011;62918;55.706;37.816;2023-07-29T03:10:43;3.17;;;1.40;;
74469;SDS011;62918;55.706;37.816;2023-07-29T03:11:14;2.53;;;1.65;;
74469;SDS011;62918;55.706;37.816;2023-07-29T03:11:50;3.35;;;1.38;;
74469;SDS011;62918;55.706;37.816;2023-07-29T03:12:33;3.50;;;1.75;;
74469;SDS011;62918;55.706;37.816;2023-07-29T03:13:03;3.10;;;1.73;;
74469;SDS011;62918;55.706;37.816;2023-07-29T03:13:34;3.35;;;1.40;;
74469;SDS011;62918;55.706;37.816;2023-07-29T03:14:04;3.35;;;1.60;;
74469;SDS011;62918;55.706;37.816;2023-07-29T03:14:38;3.28;;;1.60;;
74469;SDS011;62918;55.706;37.816;2023-07-29T03:15:11;2.63;;;1.55;;
74469;SDS011;62918;55.706;37.816;2023-07-29T03:15:42;2.20;;;1.30;;
74469;SDS011;62918;55.706;37.816;2023-07-29T03:16:14;2.15;;;0.98;;
74469;SDS011;62918;55.706;37.816;2023-07-29T03:16:46;3.30;;;1.38;;
74469;SDS011;62918;55.706;37.816;2023-07-29T03:17:16;3.55;;;1.48;;
74469;SDS011;62918;55.706;37.816;2023-07-29T03:17:47;3.15;;;1.30;;
74469;SDS011;62918;55.706;37.816;2023-07-29T03:18:17;4.55;;;1.65;;
74469;SDS011;62918;55.706;37.816;2023-07-29T03:18:48;3.42;;;1.20;;
74469;SDS011;62918;55.706;37.816;2023-07-29T03:19:19;1.80;;;1.15;;